Time;durP1;ratioP1;P1;durP2;ratioP2;P2;SDS_P1;SDS_P2;PMS_P1;PMS_P2;Temp;Humidity;BMP_temperature;BMP_pressure;BME280_temperature;BME280_humidity;BME280_pressure;Samples;Min_cycle;Max_cycle;Signal;HPM_P1;HPM_P2
2021/08/13 00:01:51;;;;;;;10.23;5.63;;;24.00;70.20;;;;;;5043713;28;20134;-77
2021/08/13 00:04:17;;;;;;;10.40;9.20;;;23.90;70.30;;;;;;5050451;28;20040;-78
2021/08/13 00:06:42;;;;;;;14.77;11.40;;;23.90;70.30;;;;;;5037983;28;20065;-78
2021/08/13 00:09:09;;;;;;;10.18;5.35;;;23.90;70.80;;;;;;5038211;28;20041;-78
2021/08/13 00:11:39;;;;;;;11.00;6.03;;;23.80;69.90;;;;;;5041266;28;20036;-78
2021/08/13 00:14:06;;;;;;;8.80;5.72;;;23.80;69.90;;;;;;5044682;28;20121;-78
2021/08/13 00:16:32;;;;;;;10.77;6.60;;;23.80;70.00;;;;;;5051242;28;20029;-78
2021/08/13 00:18:57;;;;;;;9.43;5.95;;;23.70;69.90;;;;;;5042796;28;20071;-78
2021/08/13 00:21:23;;;;;;;11.32;7.20;;;23.70;69.90;;;;;;5043590;28;20029;-78
2021/08/13 00:23:49;;;;;;;11.88;7.03;;;23.70;70.10;;;;;;5045301;28;20086;-78
2021/08/13 00:26:15;;;;;;;9.88;7.00;;;23.60;70.10;;;;;;5042651;28;20481;-78
2021/08/13 00:28:40;;;;;;;10.05;6.80;;;23.60;70.30;;;;;;5046457;28;20037;-78
2021/08/13 00:31:09;;;;;;;12.98;7.70;;;23.60;70.50;;;;;;5038083;28;20041;-78
2021/08/13 00:33:35;;;;;;;9.70;6.57;;;23.50;70.80;;;;;;5050472;28;20055;-77
2021/08/13 00:36:02;;;;;;;18.92;7.40;;;23.50;71.10;;;;;;5049615;28;20071;-78
2021/08/13 00:38:29;;;;;;;11.15;7.00;;;23.50;71.40;;;;;;5039371;28;20025;-77
2021/08/13 00:40:56;;;;;;;9.40;6.53;;;23.40;71.50;;;;;;5048265;28;20029;-78
2021/08/13 00:43:24;;;;;;;10.88;7.18;;;23.40;71.60;;;;;;5047393;28;20112;-77
2021/08/13 00:45:49;;;;;;;10.60;7.00;;;23.40;71.60;;;;;;5048986;28;20580;-78
2021/08/13 00:48:17;;;;;;;10.65;5.97;;;23.30;71.70;;;;;;5050109;28;20115;-77
2021/08/13 00:51:04;;;;;;;11.30;6.32;;;23.30;71.60;;;;;;5050260;28;20186;-77
2021/08/13 00:53:35;;;;;;;8.48;5.65;;;23.30;71.10;;;;;;5048907;28;20027;-78
2021/08/13 00:56:02;;;;;;;7.75;5.60;;;23.20;70.80;;;;;;5040449;28;20025;-78
2021/08/13 00:58:43;;;;;;;8.30;5.40;;;23.20;70.60;;;;;;5047252;28;20027;-77
2021/08/13 01:01:31;;;;;;;7.78;5.40;;;23.20;70.50;;;;;;5045875;28;20054;-77
2021/08/13 01:03:58;;;;;;;10.75;6.80;;;23.10;70.60;;;;;;5050641;28;20025;-78
2021/08/13 01:06:26;;;;;;;9.02;5.28;;;23.10;70.60;;;;;;5048269;28;20024;-77
2021/08/13 01:08:52;;;;;;;7.90;5.65;;;23.00;70.60;;;;;;5046507;28;20025;-78
2021/08/13 01:11:27;;;;;;;10.48;6.40;;;23.00;70.50;;;;;;5047639;28;20045;-78
2021/08/13 01:14:28;;;;;;;11.38;6.57;;;23.00;70.50;;;;;;5042632;28;20650;-78
2021/08/13 01:16:56;;;;;;;10.90;7.15;;;22.90;70.80;;;;;;5048674;28;20028;-78
2021/08/13 01:19:56;;;;;;;10.45;6.78;;;22.90;71.10;;;;;;5049318;28;20426;-78
2021/08/13 01:22:33;;;;;;;10.52;7.40;;;22.90;71.50;;;;;;5019795;28;20168;-78
2021/08/13 01:25:02;;;;;;;15.05;7.15;;;22.80;71.70;;;;;;5044143;28;20562;-78
2021/08/13 01:27:32;;;;;;;9.60;6.90;;;22.80;71.70;;;;;;5032814;28;20476;-78
2021/08/13 01:30:06;;;;;;;11.98;7.63;;;22.80;72.00;;;;;;5032306;28;20124;-78
2021/08/13 01:33:08;;;;;;;10.80;7.35;;;22.70;72.30;;;;;;5059253;28;20385;-78
2021/08/13 01:35:44;;;;;;;12.02;7.80;;;22.70;72.40;;;;;;5045566;28;20017;-78
2021/08/13 01:38:22;;;;;;;11.35;7.10;;;22.70;72.60;;;;;;5040565;28;20029;-78
2021/08/13 01:40:55;;;;;;;21.63;19.60;;;22.60;72.60;;;;;;5054378;28;20147;-78
2021/08/13 01:43:24;;;;;;;11.98;7.60;;;22.60;72.80;;;;;;5040456;28;20056;-77
2021/08/13 01:45:55;;;;;;;10.32;6.95;;;22.60;73.00;;;;;;5049400;28;20025;-77
2021/08/13 01:48:21;;;;;;;11.25;7.22;;;22.60;72.90;;;;;;5049037;28;20029;-80
2021/08/13 01:50:49;;;;;;;12.95;7.00;;;22.50;72.80;;;;;;5049606;28;20480;-78
2021/08/13 01:53:18;;;;;;;11.82;6.93;;;22.50;73.00;;;;;;5053623;28;20147;-78
2021/08/13 01:55:46;;;;;;;11.55;7.38;;;22.50;73.10;;;;;;5052650;28;20044;-78
2021/08/13 01:58:14;;;;;;;9.43;7.20;;;22.50;73.30;;;;;;5052822;28;20079;-78
2021/08/13 02:00:42;;;;;;;11.27;7.13;;;22.40;73.30;;;;;;5053538;28;20120;-78
2021/08/13 02:03:08;;;;;;;11.25;7.10;;;22.50;73.40;;;;;;5050594;28;20108;-78
2021/08/13 02:05:40;;;;;;;7.80;5.38;;;22.40;73.40;;;;;;5051873;28;20032;-78
2021/08/13 02:08:07;;;;;;;6.72;4.70;;;22.40;73.30;;;;;;5051929;28;20480;-78
2021/08/13 02:10:41;;;;;;;9.70;7.13;;;22.30;73.10;;;;;;5052416;28;20425;-78
2021/08/13 02:13:08;;;;;;;15.57;7.78;;;22.30;73.20;;;;;;5052322;28;20021;-78
2021/08/13 02:15:38;;;;;;;12.68;7.35;;;22.30;73.60;;;;;;5052366;28;20120;-78
2021/08/13 02:18:08;;;;;;;12.90;7.40;;;22.30;73.80;;;;;;5051690;28;20021;-78
2021/08/13 02:20:37;;;;;;;9.98;7.18;;;22.20;73.80;;;;;;5052278;28;20048;-78
2021/08/13 02:23:05;;;;;;;12.73;8.70;;;22.30;73.90;;;;;;5048542;28;20029;-78
2021/08/13 02:25:32;;;;;;;12.98;7.30;;;22.20;74.00;;;;;;5049886;28;20059;-78
2021/08/13 02:27:58;;;;;;;11.13;7.57;;;22.20;74.00;;;;;;5050965;28;20021;-78
2021/08/13 02:30:25;;;;;;;15.80;8.57;;;22.20;74.20;;;;;;5052750;28;20033;-78
2021/08/13 02:32:51;;;;;;;11.45;7.43;;;22.20;74.10;;;;;;5046010;28;20022;-78
2021/08/13 02:35:27;;;;;;;11.95;7.53;;;22.10;74.20;;;;;;5049524;28;20426;-78
2021/08/13 02:37:59;;;;;;;13.10;7.30;;;22.10;74.30;;;;;;5053281;28;20052;-78
2021/08/13 02:40:30;;;;;;;11.75;7.32;;;22.10;74.30;;;;;;5064893;28;20025;-78
2021/08/13 02:43:05;;;;;;;11.52;7.68;;;22.10;74.20;;;;;;5051260;28;20472;-78
2021/08/13 02:45:40;;;;;;;13.13;7.60;;;22.10;74.20;;;;;;5046245;28;20032;-78
2021/08/13 02:48:08;;;;;;;14.15;7.68;;;22.00;74.20;;;;;;5052768;28;20519;-78
2021/08/13 02:50:41;;;;;;;13.50;7.82;;;22.00;74.30;;;;;;5047468;28;20048;-78
2021/08/13 02:53:10;;;;;;;13.35;8.30;;;21.90;74.20;;;;;;5052127;28;20034;-78
2021/08/13 02:55:42;;;;;;;15.30;7.68;;;21.90;74.40;;;;;;5051374;28;20025;-78
2021/08/13 02:58:10;;;;;;;18.97;8.60;;;21.90;74.50;;;;;;5050152;28;20423;-78
2021/08/13 03:00:40;;;;;;;13.90;8.30;;;21.90;74.50;;;;;;5052974;28;20033;-78
2021/08/13 03:03:07;;;;;;;13.40;8.82;;;21.90;74.40;;;;;;5049222;28;20028;-78
2021/08/13 03:05:34;;;;;;;13.38;8.15;;;21.80;74.30;;;;;;5049152;28;20028;-78
2021/08/13 03:08:05;;;;;;;14.68;8.55;;;21.80;74.40;;;;;;5046069;28;20029;-78
2021/08/13 03:10:32;;;;;;;13.82;8.18;;;21.80;74.60;;;;;;5052616;28;20048;-78
2021/08/13 03:12:59;;;;;;;15.82;8.40;;;21.80;74.70;;;;;;5049700;28;20068;-78
2021/08/13 03:15:27;;;;;;;18.67;9.50;;;21.80;74.90;;;;;;5040890;28;20043;-78
2021/08/13 03:17:53;;;;;;;13.65;7.80;;;21.70;74.80;;;;;;5051195;28;20028;-78
2021/08/13 03:20:20;;;;;;;15.25;8.90;;;21.70;74.40;;;;;;5049802;28;20033;-78
2021/08/13 03:23:00;;;;;;;14.38;8.07;;;21.70;74.60;;;;;;5051524;28;20057;-78
2021/08/13 03:25:27;;;;;;;14.05;8.15;;;21.70;74.50;;;;;;5052054;28;20033;-78
2021/08/13 03:27:55;;;;;;;15.77;8.73;;;21.60;74.50;;;;;;5053623;28;20028;-78
2021/08/13 03:30:21;;;;;;;15.02;9.05;;;21.60;74.70;;;;;;5049280;28;20048;-78
2021/08/13 03:32:50;;;;;;;15.95;8.35;;;21.60;74.70;;;;;;5051867;28;20021;-78
2021/08/13 03:35:16;;;;;;;14.95;9.35;;;21.50;74.80;;;;;;5041722;28;20029;-78
2021/08/13 03:37:42;;;;;;;15.07;9.20;;;21.50;75.00;;;;;;5048077;28;20048;-78
2021/08/13 03:40:09;;;;;;;16.38;8.75;;;21.50;75.10;;;;;;5040765;28;20029;-78
2021/08/13 03:42:36;;;;;;;17.67;10.18;;;21.50;75.10;;;;;;5046380;28;20413;-78
2021/08/13 03:45:03;;;;;;;13.48;8.95;;;21.50;75.30;;;;;;5047472;28;20051;-78
2021/08/13 03:47:30;;;;;;;14.93;8.68;;;21.50;75.50;;;;;;5046846;28;20041;-78
2021/08/13 03:49:56;;;;;;;16.30;9.25;;;21.50;75.40;;;;;;5044316;28;20036;-78
2021/08/13 03:52:22;;;;;;;11.75;8.05;;;21.50;75.50;;;;;;5051164;28;20384;-78
2021/08/13 03:54:48;;;;;;;12.45;8.63;;;21.50;75.40;;;;;;5051236;28;20479;-78
2021/08/13 03:57:14;;;;;;;14.40;8.50;;;21.50;75.30;;;;;;5050176;28;20059;-78
2021/08/13 03:59:40;;;;;;;15.07;8.27;;;21.40;75.10;;;;;;5045457;28;20053;-77
2021/08/13 04:02:06;;;;;;;13.45;8.60;;;21.40;75.10;;;;;;5044124;28;20037;-78
2021/08/13 04:04:32;;;;;;;15.30;8.15;;;21.30;75.20;;;;;;5049286;28;20823;-78
2021/08/13 04:06:57;;;;;;;17.98;9.32;;;21.30;75.10;;;;;;5042253;28;20048;-78
2021/08/13 04:09:23;;;;;;;15.55;9.18;;;21.30;75.20;;;;;;5034650;28;20034;-78
2021/08/13 04:11:49;;;;;;;17.85;9.48;;;21.30;75.50;;;;;;5052509;28;20025;-78
2021/08/13 04:14:16;;;;;;;16.80;8.93;;;21.30;75.50;;;;;;5039105;28;20029;-78
2021/08/13 04:16:43;;;;;;;13.50;8.85;;;21.30;75.40;;;;;;5050383;28;20032;-78
2021/08/13 04:19:08;;;;;;;16.27;9.77;;;21.20;75.60;;;;;;5041637;28;20399;-78
2021/08/13 04:21:37;;;;;;;12.20;8.40;;;21.20;75.70;;;;;;5047910;28;20933;-78
2021/08/13 04:24:02;;;;;;;20.10;8.57;;;21.20;75.90;;;;;;5050562;28;20108;-78
2021/08/13 04:26:28;;;;;;;12.80;8.63;;;21.20;76.00;;;;;;5048904;28;20420;-78
2021/08/13 04:28:54;;;;;;;18.63;9.57;;;21.20;76.10;;;;;;5042038;28;20047;-78
2021/08/13 04:31:21;;;;;;;15.90;9.15;;;21.20;75.90;;;;;;5051209;28;20489;-78
2021/08/13 04:33:47;;;;;;;18.17;9.10;;;21.20;76.00;;;;;;5048493;28;20115;-78
2021/08/13 04:36:18;;;;;;;16.02;8.82;;;21.10;75.90;;;;;;5041538;28;20116;-78
2021/08/13 04:38:44;;;;;;;20.90;10.20;;;21.20;75.90;;;;;;5039683;28;20540;-78
2021/08/13 04:41:10;;;;;;;12.75;8.57;;;21.10;76.70;;;;;;5042533;28;20025;-79
2021/08/13 04:43:38;;;;;;;16.25;9.45;;;21.10;76.10;;;;;;5039236;28;20486;-79
2021/08/13 04:46:04;;;;;;;15.70;8.70;;;21.00;76.00;;;;;;5044126;28;20057;-78
2021/08/13 04:48:31;;;;;;;14.60;9.18;;;21.00;76.10;;;;;;5045927;28;20064;-78
2021/08/13 04:50:57;;;;;;;16.48;9.27;;;21.00;76.30;;;;;;5056129;28;20087;-78
2021/08/13 04:53:22;;;;;;;17.73;10.23;;;21.10;76.30;;;;;;5049569;28;20287;-79
2021/08/13 04:55:48;;;;;;;17.52;10.52;;;21.00;76.30;;;;;;5047050;28;20388;-78
2021/08/13 04:58:15;;;;;;;15.60;9.63;;;21.00;76.50;;;;;;5058957;28;20024;-79
2021/08/13 05:00:42;;;;;;;20.40;10.18;;;21.00;76.30;;;;;;5048432;28;20431;-79
2021/08/13 05:03:12;;;;;;;23.17;10.07;;;21.00;76.60;;;;;;5050365;28;20116;-82
2021/08/13 05:05:44;;;;;;;17.13;10.18;;;21.00;76.40;;;;;;5047996;28;20041;-77
2021/08/13 05:08:10;;;;;;;16.40;9.52;;;20.90;76.40;;;;;;5048012;28;20024;-78
2021/08/13 05:10:38;;;;;;;15.63;8.93;;;20.90;76.70;;;;;;5049695;28;20396;-76
2021/08/13 05:13:04;;;;;;;15.82;9.45;;;20.90;76.50;;;;;;5048856;28;20029;-76
2021/08/13 05:15:32;;;;;;;14.15;9.02;;;20.90;76.50;;;;;;5048859;28;20112;-77
2021/08/13 05:18:04;;;;;;;13.63;8.50;;;20.90;76.80;;;;;;5044754;28;20108;-76
2021/08/13 05:20:29;;;;;;;15.25;9.30;;;20.90;76.70;;;;;;5048365;28;20029;-77
2021/08/13 05:23:00;;;;;;;15.15;8.40;;;20.80;76.70;;;;;;5048640;28;20175;-75
2021/08/13 05:25:26;;;;;;;15.00;8.65;;;20.80;76.70;;;;;;5047568;28;20025;-78
2021/08/13 05:27:51;;;;;;;14.43;6.82;;;20.80;76.70;;;;;;5047734;28;20025;-75
2021/08/13 05:30:19;;;;;;;14.02;6.35;;;20.80;77.10;;;;;;5048177;28;20178;-75
2021/08/13 05:32:49;;;;;;;13.75;8.07;;;20.80;77.30;;;;;;5049898;28;20104;-76
2021/08/13 05:35:15;;;;;;;11.43;6.22;;;20.80;77.50;;;;;;5046188;28;20410;-76
2021/08/13 05:37:43;;;;;;;15.55;9.32;;;20.90;77.80;;;;;;5046156;28;20369;-75
2021/08/13 05:40:10;;;;;;;15.98;9.32;;;20.90;77.70;;;;;;5049623;28;20032;-69
2021/08/13 05:42:37;;;;;;;17.83;8.93;;;20.80;77.60;;;;;;5046295;28;20037;-76
2021/08/13 05:45:03;;;;;;;17.40;8.75;;;20.90;77.90;;;;;;5047913;28;20029;-75
2021/08/13 05:47:31;;;;;;;14.63;9.30;;;20.90;77.70;;;;;;5047032;28;20036;-76
2021/08/13 05:49:57;;;;;;;20.13;10.77;;;20.90;77.70;;;;;;5047617;28;20116;-77
2021/08/13 05:52:23;;;;;;;14.35;9.93;;;20.90;77.90;;;;;;5047958;28;20214;-77
2021/08/13 05:54:49;;;;;;;17.25;10.70;;;21.00;77.90;;;;;;5047274;28;20033;-77
2021/08/13 05:57:15;;;;;;;23.13;10.23;;;21.00;77.80;;;;;;5049195;28;20425;-78
2021/08/13 05:59:41;;;;;;;18.63;9.43;;;21.00;77.80;;;;;;5042413;28;20053;-77
2021/08/13 06:02:07;;;;;;;17.65;10.65;;;21.00;77.80;;;;;;5049018;28;20103;-77
2021/08/13 06:04:32;;;;;;;15.80;9.23;;;21.00;78.00;;;;;;5047157;28;20047;-72
2021/08/13 06:06:58;;;;;;;20.90;10.27;;;21.10;77.70;;;;;;5049245;28;20067;-78
2021/08/13 06:09:24;;;;;;;20.73;9.60;;;21.10;77.60;;;;;;5047107;28;20087;-74
2021/08/13 06:11:50;;;;;;;15.13;8.00;;;21.00;77.40;;;;;;5039900;28;20464;-79
2021/08/13 06:14:17;;;;;;;18.42;8.90;;;21.10;76.30;;;;;;5048342;28;20029;-77
2021/08/13 06:16:43;;;;;;;17.65;10.63;;;21.00;76.40;;;;;;5047534;28;20021;-79
2021/08/13 06:19:09;;;;;;;19.95;10.35;;;21.00;76.80;;;;;;5047515;28;20497;-78
2021/08/13 06:21:36;;;;;;;19.33;9.68;;;21.00;77.30;;;;;;5040935;28;20030;-77
2021/08/13 06:24:01;;;;;;;20.73;11.13;;;21.10;77.40;;;;;;5047502;28;20071;-78
2021/08/13 06:26:28;;;;;;;24.70;12.30;;;21.10;77.20;;;;;;5046321;28;20021;-78
2021/08/13 06:28:55;;;;;;;19.40;10.15;;;21.00;77.70;;;;;;5047602;28;20111;-78
2021/08/13 06:31:21;;;;;;;17.27;8.95;;;21.00;76.90;;;;;;5047614;28;20469;-78
2021/08/13 06:33:48;;;;;;;29.50;11.77;;;21.00;76.80;;;;;;5050408;28;20067;-78
2021/08/13 06:36:13;;;;;;;17.52;9.50;;;21.00;77.30;;;;;;5050451;28;20029;-78
2021/08/13 06:38:39;;;;;;;16.10;8.57;;;21.10;77.30;;;;;;5052301;28;20036;-78
2021/08/13 06:41:06;;;;;;;25.10;10.50;;;21.00;77.20;;;;;;5045696;28;20033;-78
2021/08/13 06:43:43;;;;;;;21.13;10.13;;;21.00;77.60;;;;;;5051774;28;20024;-78
2021/08/13 06:46:13;;;;;;;22.13;10.63;;;21.00;77.80;;;;;;5067903;28;20121;-81
2021/08/13 06:48:39;;;;;;;21.42;11.85;;;21.10;78.20;;;;;;5054358;28;20103;-88
2021/08/13 06:51:06;;;;;;;22.48;10.07;;;21.10;78.40;;;;;;5053750;28;20067;-87
2021/08/13 06:53:33;;;;;;;17.80;9.27;;;21.10;78.60;;;;;;5051616;28;20021;-73
2021/08/13 06:55:59;;;;;;;19.60;9.80;;;21.10;79.00;;;;;;5050041;28;20032;-75
2021/08/13 06:58:25;;;;;;;15.63;8.82;;;21.20;78.40;;;;;;5052657;28;20025;-80
2021/08/13 07:00:50;;;;;;;13.43;6.75;;;21.20;77.90;;;;;;5050062;28;20155;-74
2021/08/13 07:03:16;;;;;;;19.83;7.75;;;21.20;77.60;;;;;;5053467;28;20033;-72
2021/08/13 07:05:42;;;;;;;10.60;6.25;;;21.10;77.80;;;;;;5052614;28;20029;-76
2021/08/13 07:08:10;;;;;;;16.65;8.50;;;21.20;77.70;;;;;;5037517;28;20068;-74
2021/08/13 07:10:39;;;;;;;20.90;6.18;;;21.20;78.50;;;;;;5047666;28;20036;-74
2021/08/13 07:13:05;;;;;;;19.13;9.48;;;21.20;78.30;;;;;;5050403;28;20029;-73
2021/08/13 07:15:32;;;;;;;17.25;9.10;;;21.20;78.80;;;;;;5050631;28;20111;-73
2021/08/13 07:17:57;;;;;;;15.40;8.65;;;21.30;79.30;;;;;;5052967;28;20547;-77
2021/08/13 07:20:24;;;;;;;13.40;7.90;;;21.30;79.30;;;;;;5053488;28;20585;-73
2021/08/13 07:22:52;;;;;;;15.55;7.50;;;21.30;79.20;;;;;;5042913;28;20029;-72
2021/08/13 07:25:22;;;;;;;16.77;8.15;;;21.30;79.50;;;;;;5043232;28;20030;-72
2021/08/13 07:27:48;;;;;;;16.52;9.02;;;21.30;79.70;;;;;;5046496;28;20027;-71
2021/08/13 07:30:15;;;;;;;9.30;4.93;;;21.30;79.80;;;;;;5047995;28;20041;-72
2021/08/13 07:32:44;;;;;;;12.30;4.95;;;21.30;79.30;;;;;;5046285;28;20044;-72
2021/08/13 07:35:10;;;;;;;23.10;4.90;;;21.40;79.30;;;;;;5044238;28;20041;-71
2021/08/13 07:37:44;;;;;;;14.38;8.27;;;21.40;79.70;;;;;;5044028;28;20039;-72
2021/08/13 07:40:10;;;;;;;15.02;8.32;;;21.40;80.30;;;;;;5047139;28;20116;-70
2021/08/13 07:42:37;;;;;;;13.75;7.53;;;21.50;80.40;;;;;;5044925;28;20582;-75
2021/08/13 07:45:05;;;;;;;14.02;7.43;;;21.50;80.30;;;;;;5042232;28;20495;-72
2021/08/13 07:47:31;;;;;;;11.50;5.60;;;21.60;80.40;;;;;;5041080;28;20049;-72
2021/08/13 07:49:56;;;;;;;10.98;6.72;;;21.60;80.10;;;;;;5049516;28;20091;-72
2021/08/13 07:52:22;;;;;;;15.50;8.43;;;21.60;80.30;;;;;;5050564;28;20402;-72
2021/08/13 07:54:51;;;;;;;13.05;7.60;;;21.60;80.50;;;;;;5052145;28;20037;-72
2021/08/13 07:57:18;;;;;;;11.98;6.60;;;21.60;80.50;;;;;;5047665;28;20027;-72
2021/08/13 07:59:45;;;;;;;10.27;6.32;;;21.70;80.40;;;;;;5052140;28;20036;-72
2021/08/13 08:02:14;;;;;;;15.68;7.35;;;21.70;80.40;;;;;;5047892;28;20028;-72
2021/08/13 08:04:40;;;;;;;12.02;6.88;;;21.70;80.50;;;;;;5047452;28;20611;-72
2021/08/13 08:07:06;;;;;;;12.55;6.93;;;21.70;80.40;;;;;;5049149;28;20099;-72
2021/08/13 08:09:31;;;;;;;14.98;6.20;;;21.80;80.50;;;;;;5049901;28;20039;-72
2021/08/13 08:11:57;;;;;;;7.22;4.00;;;21.80;80.50;;;;;;5050434;28;20039;-72
2021/08/13 08:14:22;;;;;;;10.52;5.03;;;21.80;80.00;;;;;;5049473;28;20032;-71
2021/08/13 08:16:48;;;;;;;12.05;5.93;;;21.90;80.20;;;;;;5048555;28;20037;-72
2021/08/13 08:19:14;;;;;;;13.27;6.07;;;21.90;80.50;;;;;;5048900;28;20040;-72
2021/08/13 08:21:40;;;;;;;10.10;5.43;;;21.90;81.20;;;;;;5034767;28;20037;-72
2021/08/13 08:24:06;;;;;;;9.38;4.90;;;22.00;80.50;;;;;;5051845;28;20044;-73
2021/08/13 08:26:32;;;;;;;21.98;4.47;;;22.00;80.10;;;;;;5045784;28;20029;-72
2021/08/13 08:28:57;;;;;;;9.93;5.40;;;22.10;80.10;;;;;;5050249;28;20032;-72
2021/08/13 08:31:23;;;;;;;10.75;6.47;;;22.10;80.30;;;;;;5048510;28;20309;-72
2021/08/13 08:33:51;;;;;;;11.00;5.70;;;22.10;80.40;;;;;;5050397;28;20036;-72
2021/08/13 08:36:17;;;;;;;10.10;4.03;;;22.20;80.30;;;;;;5049568;28;20399;-71
2021/08/13 08:38:42;;;;;;;10.00;6.03;;;22.20;80.20;;;;;;5047386;28;20025;-73
2021/08/13 08:41:09;;;;;;;12.88;5.65;;;22.20;80.60;;;;;;5050467;28;20505;-72
2021/08/13 08:43:35;;;;;;;10.30;6.18;;;22.20;80.60;;;;;;5050221;28;20529;-73
2021/08/13 08:46:01;;;;;;;12.38;6.47;;;22.20;80.60;;;;;;5048449;28;20040;-73
2021/08/13 08:48:35;;;;;;;5.97;3.33;;;22.20;80.80;;;;;;5047194;28;20067;-73
2021/08/13 08:51:02;;;;;;;14.23;7.07;;;22.30;80.50;;;;;;5046955;28;20509;-73
2021/08/13 08:53:29;;;;;;;15.65;4.68;;;22.30;81.00;;;;;;5043887;28;20040;-74
2021/08/13 08:55:56;;;;;;;8.23;4.15;;;22.40;80.70;;;;;;5042465;28;20128;-73
2021/08/13 08:58:23;;;;;;;11.90;5.90;;;22.40;81.00;;;;;;5043556;28;20411;-74
2021/08/13 09:00:49;;;;;;;16.88;5.35;;;22.50;81.40;;;;;;5044585;28;20124;-73
2021/08/13 09:03:16;;;;;;;3.17;1.98;;;22.50;81.50;;;;;;5044665;28;20060;-74
2021/08/13 09:05:43;;;;;;;7.30;3.88;;;22.50;81.40;;;;;;5044628;28;20033;-74
2021/08/13 09:08:09;;;;;;;5.45;3.33;;;22.50;81.50;;;;;;5042723;28;20035;-73
2021/08/13 09:10:35;;;;;;;7.20;3.13;;;22.50;81.50;;;;;;5043059;28;20045;-74
2021/08/13 09:13:05;;;;;;;6.60;2.75;;;22.50;81.90;;;;;;5038804;28;20480;-73
2021/08/13 09:15:34;;;;;;;9.77;4.32;;;22.40;82.10;;;;;;5045283;28;20451;-73
2021/08/13 09:18:20;;;;;;;9.90;3.15;;;22.50;82.30;;;;;;5047626;28;20043;-73
2021/08/13 09:20:48;;;;;;;4.95;2.75;;;22.50;82.40;;;;;;5048926;28;20043;-73
2021/08/13 09:23:45;;;;;;;4.32;2.60;;;22.40;82.60;;;;;;5050379;28;20044;-73
2021/08/13 09:26:13;;;;;;;6.68;3.47;;;22.50;82.60;;;;;;5049485;28;20041;-73
2021/08/13 09:28:59;;;;;;;6.38;3.92;;;22.50;82.60;;;;;;5047493;28;20044;-74
2021/08/13 09:31:52;;;;;;;;;;;22.50;82.60;;;;;;5029920;28;20511;-74
2021/08/13 09:34:31;;;;;;;7.85;2.97;;;22.50;82.30;;;;;;5063367;28;20371;-74
2021/08/13 09:36:57;;;;;;;3.65;2.38;;;22.50;82.30;;;;;;5042312;28;20025;-74
2021/08/13 09:39:25;;;;;;;5.43;2.55;;;22.50;82.10;;;;;;5049718;28;20091;-74
2021/08/13 09:41:56;;;;;;;2.58;1.77;;;22.50;82.10;;;;;;5047741;28;20028;-73
2021/08/13 09:44:26;;;;;;;6.05;2.83;;;22.60;82.00;;;;;;5044242;28;20022;-74
2021/08/13 09:46:59;;;;;;;2.72;2.25;;;22.60;82.00;;;;;;5041222;28;20458;-74
2021/08/13 09:49:26;;;;;;;6.30;2.90;;;22.60;82.20;;;;;;5044255;28;20030;-74
2021/08/13 09:51:51;;;;;;;4.47;2.45;;;22.60;82.20;;;;;;5064771;28;20033;-74
2021/08/13 09:54:25;;;;;;;4.22;2.13;;;22.60;82.20;;;;;;5043894;28;20058;-73
2021/08/13 09:56:50;;;;;;;;;;;22.70;82.20;;;;;;5044521;28;20075;-74
2021/08/13 09:59:20;;;;;;;8.35;3.20;;;22.70;82.10;;;;;;5047081;28;19909;-74
2021/08/13 10:01:50;;;;;;;10.82;4.38;;;22.70;81.90;;;;;;5042447;28;20091;-74
2021/08/13 10:04:18;;;;;;;4.90;2.97;;;22.70;81.90;;;;;;5047373;28;20084;-74
2021/08/13 10:06:46;;;;;;;3.60;2.28;;;22.70;81.90;;;;;;5065606;28;20024;-75
2021/08/13 10:09:27;;;;;;;3.63;2.50;;;22.70;81.80;;;;;;5046710;28;20112;-75
2021/08/13 10:12:00;;;;;;;7.40;2.20;;;22.70;81.70;;;;;;5052684;28;20509;-75
2021/08/13 10:14:35;;;;;;;5.57;2.05;;;22.70;81.40;;;;;;5046125;28;20018;-75
2021/08/13 10:17:16;;;;;;;5.13;2.00;;;22.70;80.90;;;;;;5041990;28;20021;-75
2021/08/13 10:19:50;;;;;;;2.25;1.65;;;22.70;80.60;;;;;;5067127;28;20021;-75
2021/08/13 10:22:20;;;;;;;9.90;2.03;;;22.70;80.30;;;;;;5050439;28;20039;-75
2021/08/13 10:24:47;;;;;;;5.00;2.65;;;22.60;80.00;;;;;;5045344;28;20609;-75
2021/08/13 10:27:15;;;;;;;1.55;1.23;;;22.70;80.10;;;;;;5048448;28;20033;-75
2021/08/13 10:29:47;;;;;;;2.33;1.80;;;22.70;80.10;;;;;;5048014;28;20087;-75
2021/08/13 10:32:20;;;;;;;1.73;1.48;;;22.70;80.00;;;;;;5046712;28;20120;-75
2021/08/13 10:34:46;;;;;;;;;;;22.70;79.70;;;;;;5065801;28;20075;-75
2021/08/13 10:37:14;;;;;;;2.67;1.55;;;22.80;79.50;;;;;;5049847;28;19913;-75
2021/08/13 10:39:44;;;;;;;1.67;1.23;;;22.80;79.40;;;;;;5048980;28;20112;-75
2021/08/13 10:42:19;;;;;;;4.75;2.40;;;22.80;79.30;;;;;;5048969;28;20060;-75
2021/08/13 10:45:08;;;;;;;4.32;2.65;;;22.80;79.00;;;;;;5050192;28;20079;-75
2021/08/13 10:47:50;;;;;;;16.23;2.65;;;22.80;78.00;;;;;;5050174;28;20051;-74
2021/08/13 10:50:18;;;;;;;9.90;2.85;;;22.80;77.70;;;;;;5053072;28;20040;-75
2021/08/13 10:52:44;;;;;;;5.85;2.25;;;22.80;76.80;;;;;;5049526;28;20033;-76
2021/08/13 10:55:42;;;;;;;2.90;1.80;;;22.90;77.00;;;;;;5050629;28;20038;-75
2021/08/13 10:58:09;;;;;;;4.75;2.03;;;22.90;77.10;;;;;;5048092;28;20033;-74
2021/08/13 11:00:58;;;;;;;3.65;1.80;;;22.90;76.20;;;;;;5049435;28;20036;-75
2021/08/13 11:03:24;;;;;;;1.75;1.27;;;23.00;76.00;;;;;;5036063;28;20041;-75
2021/08/13 11:06:00;;;;;;;1.60;1.20;;;22.90;74.90;;;;;;5040631;28;20020;-75
2021/08/13 11:08:39;;;;;;;4.20;2.03;;;23.00;74.30;;;;;;5065747;28;20766;-74
2021/08/13 11:11:07;;;;;;;3.55;1.98;;;23.00;73.90;;;;;;5047622;28;20033;-74
2021/08/13 11:13:41;;;;;;;3.08;1.83;;;23.00;73.50;;;;;;5064385;28;20112;-75
2021/08/13 11:16:25;;;;;;;4.50;2.05;;;23.00;73.70;;;;;;5047007;28;20148;-75
2021/08/13 11:18:57;;;;;;;2.92;1.55;;;23.10;73.90;;;;;;5049125;28;20099;-73
2021/08/13 11:21:51;;;;;;;5.70;2.08;;;23.00;74.30;;;;;;5048715;28;20039;-75
2021/08/13 11:24:24;;;;;;;2.35;1.45;;;23.10;74.40;;;;;;5047589;28;20392;-74
2021/08/13 11:26:53;;;;;;;3.20;1.52;;;23.10;74.30;;;;;;5045662;28;20021;-75
2021/08/13 11:29:37;;;;;;;3.42;1.77;;;23.10;74.30;;;;;;5048070;28;20021;-75
2021/08/13 11:32:13;;;;;;;3.47;1.48;;;23.10;73.80;;;;;;5049018;28;20045;-75
2021/08/13 11:34:50;;;;;;;2.90;1.38;;;23.10;73.10;;;;;;5049447;28;20029;-75
2021/08/13 11:37:31;;;;;;;4.32;1.73;;;23.20;72.90;;;;;;5063156;28;20026;-75
2021/08/13 11:39:58;;;;;;;1.42;1.20;;;23.10;72.40;;;;;;5045242;28;20025;-75
2021/08/13 11:42:30;;;;;;;2.92;1.25;;;23.20;72.00;;;;;;5050077;28;20665;-75
2021/08/13 11:44:58;;;;;;;3.65;1.05;;;23.10;71.50;;;;;;5051659;28;20028;-75
2021/08/13 11:47:24;;;;;;;7.78;1.23;;;23.10;71.80;;;;;;5045624;28;20140;-75
2021/08/13 11:49:50;;;;;;;8.85;1.42;;;23.20;72.20;;;;;;5049006;28;20037;-75
2021/08/13 11:52:28;;;;;;;3.60;0.95;;;23.20;72.20;;;;;;5050869;28;20111;-75
2021/08/13 11:54:56;;;;;;;1.55;0.93;;;23.20;71.40;;;;;;5050222;28;20024;-76
2021/08/13 11:57:23;;;;;;;1.30;0.98;;;23.20;70.50;;;;;;5045452;28;20036;-76
2021/08/13 11:59:51;;;;;;;1.85;0.95;;;23.20;70.60;;;;;;5051106;28;20119;-75
2021/08/13 12:02:46;;;;;;;1.35;0.82;;;23.20;70.40;;;;;;5046367;28;20013;-76
2021/08/13 12:05:13;;;;;;;4.07;1.15;;;23.20;69.70;;;;;;5043318;28;20032;-75
2021/08/13 12:07:40;;;;;;;3.13;1.58;;;23.20;69.40;;;;;;5040776;28;20107;-75
2021/08/13 12:10:13;;;;;;;2.60;1.52;;;23.20;69.50;;;;;;5048734;28;20037;-75
2021/08/13 12:12:39;;;;;;;;;;;23.20;69.50;;;;;;5048549;28;20033;-75
2021/08/13 12:15:06;;;;;;;2.88;1.38;;;23.20;69.80;;;;;;5046992;28;19917;-76
2021/08/13 12:17:32;;;;;;;3.95;1.27;;;23.20;69.10;;;;;;5062198;28;20028;-75
2021/08/13 12:20:00;;;;;;;5.78;1.60;;;23.20;69.00;;;;;;5046275;28;20021;-76
2021/08/13 12:22:32;;;;;;;1.55;1.13;;;23.20;69.30;;;;;;5049522;28;20037;-75
2021/08/13 12:24:58;;;;;;;4.60;1.35;;;23.20;69.20;;;;;;5044383;28;20018;-75
2021/08/13 12:27:28;;;;;;;10.70;3.20;;;23.20;69.20;;;;;;5043604;28;20124;-75
2021/08/13 12:29:54;;;;;;;1.30;0.52;;;23.30;69.40;;;;;;5045501;28;20404;-75
2021/08/13 12:32:20;;;;;;;5.35;1.65;;;23.20;69.40;;;;;;5048591;28;20051;-75
2021/08/13 12:34:52;;;;;;;4.03;1.90;;;23.30;69.40;;;;;;5049947;28;20535;-75
2021/08/13 12:37:23;;;;;;;4.67;1.47;;;23.30;69.00;;;;;;5064712;28;20025;-75
2021/08/13 12:39:49;;;;;;;3.60;1.20;;;23.30;69.00;;;;;;5045718;28;20082;-75
2021/08/13 12:42:16;;;;;;;7.97;1.15;;;23.30;69.00;;;;;;5046674;28;20036;-75
2021/08/13 12:44:47;;;;;;;2.33;1.45;;;23.30;68.80;;;;;;5050001;28;20028;-76
2021/08/13 12:47:20;;;;;;;4.10;1.60;;;23.30;68.70;;;;;;5046581;28;20045;-75
2021/08/13 12:49:47;;;;;;;12.02;1.67;;;23.30;68.90;;;;;;5049222;28;20499;-75
2021/08/13 12:52:22;;;;;;;1.88;1.33;;;23.40;68.90;;;;;;5047783;28;20056;-76